sensor_id;sensor_type;location;lat;lon;timestamp;pressure;altitude;pressure_sealevel;temperature
49154;BMP280;49455;52.252;9.124;2023-03-23T00:00:18;98423.16;;;11.88
49154;BMP280;49455;52.252;9.124;2023-03-23T00:05:18;98415.38;;;11.75
49154;BMP280;49455;52.252;9.124;2023-03-23T00:10:18;98423.13;;;11.72
49154;BMP280;49455;52.252;9.124;2023-03-23T00:15:19;98418.78;;;11.57
49154;BMP280;49455;52.252;9.124;2023-03-23T00:20:19;98416.19;;;11.56
49154;BMP280;49455;52.252;9.124;2023-03-23T00:25:20;98418.75;;;11.47
49154;BMP280;49455;52.252;9.124;2023-03-23T00:30:20;98412.69;;;11.45
49154;BMP280;49455;52.252;9.124;2023-03-23T00:35:20;98398.06;;;11.44
49154;BMP280;49455;52.252;9.124;2023-03-23T00:40:21;98416.09;;;11.38
49154;BMP280;49455;52.252;9.124;2023-03-23T00:45:21;98404.88;;;11.33
49154;BMP280;49455;52.252;9.124;2023-03-23T00:50:22;98397.91;;;11.20
49154;BMP280;49455;52.252;9.124;2023-03-23T00:55:23;98394.50;;;11.21
49154;BMP280;49455;52.252;9.124;2023-03-23T01:00:24;98387.53;;;11.12
49154;BMP280;49455;52.252;9.124;2023-03-23T01:05:24;98375.53;;;11.19
49154;BMP280;49455;52.252;9.124;2023-03-23T01:10:25;98381.53;;;11.11
49154;BMP280;49455;52.252;9.124;2023-03-23T01:15:27;98372.03;;;11.15
49154;BMP280;49455;52.252;9.124;2023-03-23T01:20:28;98358.25;;;11.13
49154;BMP280;49455;52.252;9.124;2023-03-23T01:25:31;98355.66;;;11.08
49154;BMP280;49455;52.252;9.124;2023-03-23T01:30:32;98354.81;;;11.08
49154;BMP280;49455;52.252;9.124;2023-03-23T01:35:32;98342.72;;;11.10
49154;BMP280;49455;52.252;9.124;2023-03-23T01:40:33;98331.50;;;11.02
49154;BMP280;49455;52.252;9.124;2023-03-23T01:45:36;98347.03;;;11.06
49154;BMP280;49455;52.252;9.124;2023-03-23T01:50:51;98351.31;;;11.00
49154;BMP280;49455;52.252;9.124;2023-03-23T01:55:55;98340.16;;;11.11
49154;BMP280;49455;52.252;9.124;2023-03-23T02:00:58;98342.75;;;11.16
49154;BMP280;49455;52.252;9.124;2023-03-23T02:05:59;98349.66;;;11.14
49154;BMP280;49455;52.252;9.124;2023-03-23T02:11:14;98338.47;;;11.16
49154;BMP280;49455;52.252;9.124;2023-03-23T02:21:47;98318.66;;;11.19
49154;BMP280;49455;52.252;9.124;2023-03-23T02:26:59;98305.75;;;11.24
49154;BMP280;49455;52.252;9.124;2023-03-23T02:37:14;98313.50;;;11.34
49154;BMP280;49455;52.252;9.124;2023-03-23T02:42:22;98311.78;;;11.39
49154;BMP280;49455;52.252;9.124;2023-03-23T02:47:27;98293.72;;;11.42
49154;BMP280;49455;52.252;9.124;2023-03-23T02:52:30;98295.47;;;11.42
49154;BMP280;49455;52.252;9.124;2023-03-23T02:57:31;98284.28;;;11.47
49154;BMP280;49455;52.252;9.124;2023-03-23T03:02:36;98308.41;;;11.46
49154;BMP280;49455;52.252;9.124;2023-03-23T03:08:01;98276.50;;;11.50
49154;BMP280;49455;52.252;9.124;2023-03-23T03:23:49;98268.75;;;11.53
49154;BMP280;49455;52.252;9.124;2023-03-23T03:28:50;98272.22;;;11.49
49154;BMP280;49455;52.252;9.124;2023-03-23T03:33:53;98271.34;;;11.48
49154;BMP280;49455;52.252;9.124;2023-03-23T03:38:54;98284.28;;;11.47
49154;BMP280;49455;52.252;9.124;2023-03-23T03:43:54;98275.63;;;11.45
49154;BMP280;49455;52.252;9.124;2023-03-23T03:48:56;98259.25;;;11.48
49154;BMP280;49455;52.252;9.124;2023-03-23T03:53:56;98248.94;;;11.46
49154;BMP280;49455;52.252;9.124;2023-03-23T03:58:57;98249.75;;;11.39
49154;BMP280;49455;52.252;9.124;2023-03-23T04:04:21;98245.47;;;11.41
49154;BMP280;49455;52.252;9.124;2023-03-23T04:09:21;98235.09;;;11.35
49154;BMP280;49455;52.252;9.124;2023-03-23T04:14:22;98241.09;;;11.34
49154;BMP280;49455;52.252;9.124;2023-03-23T04:19:23;98241.09;;;11.34
49154;BMP280;49455;52.252;9.124;2023-03-23T04:24:24;98245.44;;;11.35
49154;BMP280;49455;52.252;9.124;2023-03-23T04:29:25;98227.34;;;11.29
49154;BMP280;49455;52.252;9.124;2023-03-23T04:34:46;98220.44;;;11.28
49154;BMP280;49455;52.252;9.124;2023-03-23T04:39:46;98218.72;;;11.27
49154;BMP280;49455;52.252;9.124;2023-03-23T04:44:48;98215.25;;;11.28
49154;BMP280;49455;52.252;9.124;2023-03-23T04:49:49;98222.13;;;11.23
49154;BMP280;49455;52.252;9.124;2023-03-23T04:54:57;98225.56;;;11.21
49154;BMP280;49455;52.252;9.124;2023-03-23T04:59:59;98239.38;;;11.23
49154;BMP280;49455;52.252;9.124;2023-03-23T05:05:13;98241.97;;;11.21
49154;BMP280;49455;52.252;9.124;2023-03-23T05:10:15;98237.69;;;11.29
49154;BMP280;49455;52.252;9.124;2023-03-23T05:15:16;98243.72;;;11.27
49154;BMP280;49455;52.252;9.124;2023-03-23T05:20:18;98251.44;;;11.37
49154;BMP280;49455;52.252;9.124;2023-03-23T05:25:22;98261.00;;;11.41
49154;BMP280;49455;52.252;9.124;2023-03-23T05:30:28;98238.56;;;11.45
49154;BMP280;49455;52.252;9.124;2023-03-23T05:35:30;98248.06;;;11.47
49154;BMP280;49455;52.252;9.124;2023-03-23T05:40:31;98231.69;;;11.51
49154;BMP280;49455;52.252;9.124;2023-03-23T05:45:37;98223.94;;;11.51
49154;BMP280;49455;52.252;9.124;2023-03-23T05:50:38;98235.13;;;11.59
49154;BMP280;49455;52.252;9.124;2023-03-23T05:55:38;98229.97;;;11.62
49154;BMP280;49455;52.252;9.124;2023-03-23T06:00:50;98227.41;;;11.62
49154;BMP280;49455;52.252;9.124;2023-03-23T06:05:56;98225.63;;;11.70
49154;BMP280;49455;52.252;9.124;2023-03-23T06:11:04;98226.50;;;11.72
49154;BMP280;49455;52.252;9.124;2023-03-23T06:16:09;98209.25;;;11.72
49154;BMP280;49455;52.252;9.124;2023-03-23T06:21:26;98242.00;;;11.80
49154;BMP280;49455;52.252;9.124;2023-03-23T06:26:33;98237.72;;;11.84
49154;BMP280;49455;52.252;9.124;2023-03-23T06:31:47;98256.69;;;11.90
49154;BMP280;49455;52.252;9.124;2023-03-23T06:36:49;98254.09;;;11.96
49154;BMP280;49455;52.252;9.124;2023-03-23T06:41:56;98259.25;;;11.96
49154;BMP280;49455;52.252;9.124;2023-03-23T06:47:03;98240.31;;;11.97
49154;BMP280;49455;52.252;9.124;2023-03-23T06:52:08;98247.16;;;12.07
49154;BMP280;49455;52.252;9.124;2023-03-23T06:57:09;98241.13;;;12.14
49154;BMP280;49455;52.252;9.124;2023-03-23T07:02:11;98257.50;;;12.22
49154;BMP280;49455;52.252;9.124;2023-03-23T07:07:12;98263.53;;;12.30
49154;BMP280;49455;52.252;9.124;2023-03-23T07:12:22;98259.22;;;12.26
49154;BMP280;49455;52.252;9.124;2023-03-23T07:17:24;98256.63;;;12.27
49154;BMP280;49455;52.252;9.124;2023-03-23T07:22:44;98261.81;;;12.33
49154;BMP280;49455;52.252;9.124;2023-03-23T07:27:57;98274.75;;;12.38
49154;BMP280;49455;52.252;9.124;2023-03-23T07:32:58;98260.88;;;12.59
49154;BMP280;49455;52.252;9.124;2023-03-23T07:37:59;98261.69;;;12.64
49154;BMP280;49455;52.252;9.124;2023-03-23T07:43:01;98255.59;;;12.72
49154;BMP280;49455;52.252;9.124;2023-03-23T07:48:40;98271.09;;;12.92
49154;BMP280;49455;52.252;9.124;2023-03-23T07:53:44;98266.72;;;13.07
49154;BMP280;49455;52.252;9.124;2023-03-23T07:59:14;98269.34;;;13.04
49154;BMP280;49455;52.252;9.124;2023-03-23T08:04:15;98270.22;;;13.01
49154;BMP280;49455;52.252;9.124;2023-03-23T08:09:46;98285.72;;;13.16
49154;BMP280;49455;52.252;9.124;2023-03-23T08:15:07;98276.19;;;13.17
49154;BMP280;49455;52.252;9.124;2023-03-23T08:20:34;98297.81;;;13.14
49154;BMP280;49455;52.252;9.124;2023-03-23T08:25:59;98299.50;;;13.18
49154;BMP280;49455;52.252;9.124;2023-03-23T08:31:19;98304.66;;;13.30
49154;BMP280;49455;52.252;9.124;2023-03-23T08:36:47;98307.22;;;13.31
49154;BMP280;49455;52.252;9.124;2023-03-23T08:42:12;98287.28;;;13.44
49154;BMP280;49455;52.252;9.124;2023-03-23T08:47:48;98312.38;;;13.37
49154;BMP280;49455;52.252;9.124;2023-03-23T08:53:04;98306.25;;;13.52
49154;BMP280;49455;52.252;9.124;2023-03-23T08:58:18;98296.69;;;13.55
49154;BMP280;49455;52.252;9.124;2023-03-23T09:03:37;98307.91;;;13.59
49154;BMP280;49455;52.252;9.124;2023-03-23T09:08:53;98321.84;;;13.43
49154;BMP280;49455;52.252;9.124;2023-03-23T09:13:53;98302.72;;;13.60
49154;BMP280;49455;52.252;9.124;2023-03-23T09:18:54;98319.16;;;13.59
49154;BMP280;49455;52.252;9.124;2023-03-23T09:23:56;98327.09;;;13.34
49154;BMP280;49455;52.252;9.124;2023-03-23T09:28:56;98338.38;;;13.30
49154;BMP280;49455;52.252;9.124;2023-03-23T09:33:57;98337.53;;;13.25
49154;BMP280;49455;52.252;9.124;2023-03-23T09:38:58;98341.72;;;13.45
49154;BMP280;49455;52.252;9.124;2023-03-23T09:54:39;98349.19;;;13.94
49154;BMP280;49455;52.252;9.124;2023-03-23T09:59:53;98362.28;;;13.81
49154;BMP280;49455;52.252;9.124;2023-03-23T10:04:57;98370.91;;;13.87
49154;BMP280;49455;52.252;9.124;2023-03-23T10:10:01;98377.78;;;13.97
49154;BMP280;49455;52.252;9.124;2023-03-23T10:15:09;98373.41;;;14.02
49154;BMP280;49455;52.252;9.124;2023-03-23T10:25:56;98373.25;;;14.21
49154;BMP280;49455;52.252;9.124;2023-03-23T10:31:01;98375.69;;;14.40
49154;BMP280;49455;52.252;9.124;2023-03-23T10:41:11;98382.47;;;14.56
49154;BMP280;49455;52.252;9.124;2023-03-23T10:46:49;98367.41;;;14.90
49154;BMP280;49455;52.252;9.124;2023-03-23T10:52:06;98377.09;;;14.77
49154;BMP280;49455;52.252;9.124;2023-03-23T10:57:29;98358.19;;;14.60
49154;BMP280;49455;52.252;9.124;2023-03-23T11:02:29;98373.06;;;14.46
49154;BMP280;49455;52.252;9.124;2023-03-23T11:07:33;98358.25;;;14.52
49154;BMP280;49455;52.252;9.124;2023-03-23T11:12:34;98360.72;;;14.64
49154;BMP280;49455;52.252;9.124;2023-03-23T11:17:35;98352.94;;;14.64
49154;BMP280;49455;52.252;9.124;2023-03-23T11:22:35;98357.41;;;14.52
49154;BMP280;49455;52.252;9.124;2023-03-23T11:27:38;98365.31;;;14.39
49154;BMP280;49455;52.252;9.124;2023-03-23T11:32:43;98413.44;;;13.57
49154;BMP280;49455;52.252;9.124;2023-03-23T11:37:53;98451.72;;;12.93
49154;BMP280;49455;52.252;9.124;2023-03-23T11:43:13;98445.66;;;12.64
49154;BMP280;49455;52.252;9.124;2023-03-23T11:54:17;98454.31;;;12.35
49154;BMP280;49455;52.252;9.124;2023-03-23T11:59:27;98460.38;;;12.62
49154;BMP280;49455;52.252;9.124;2023-03-23T12:20:22;98487.94;;;12.06
49154;BMP280;49455;52.252;9.124;2023-03-23T12:30:37;98474.97;;;12.01
49154;BMP280;49455;52.252;9.124;2023-03-23T12:41:46;98483.63;;;12.12
49154;BMP280;49455;52.252;9.124;2023-03-23T12:57:34;98470.59;;;11.74
49154;BMP280;49455;52.252;9.124;2023-03-23T13:02:46;98492.03;;;11.50
49154;BMP280;49455;52.252;9.124;2023-03-23T13:07:53;98480.84;;;11.59
49154;BMP280;49455;52.252;9.124;2023-03-23T13:12:55;98501.56;;;11.54
49154;BMP280;49455;52.252;9.124;2023-03-23T13:18:19;98494.59;;;11.43
49154;BMP280;49455;52.252;9.124;2023-03-23T13:23:28;98491.91;;;11.31
49154;BMP280;49455;52.252;9.124;2023-03-23T13:33:53;98494.69;;;11.64
49154;BMP280;49455;52.252;9.124;2023-03-23T13:39:02;98499.03;;;11.71
49154;BMP280;49455;52.252;9.124;2023-03-23T13:44:18;98496.41;;;11.66
49154;BMP280;49455;52.252;9.124;2023-03-23T13:49:22;98476.66;;;11.81
49154;BMP280;49455;52.252;9.124;2023-03-23T13:59:46;98462.91;;;12.15
49154;BMP280;49455;52.252;9.124;2023-03-23T14:04:48;98437.91;;;12.30
49154;BMP280;49455;52.252;9.124;2023-03-23T14:09:50;98445.59;;;13.20
49154;BMP280;49455;52.252;9.124;2023-03-23T14:14:55;98458.59;;;13.11
49154;BMP280;49455;52.252;9.124;2023-03-23T14:19:57;98466.28;;;13.42
49154;BMP280;49455;52.252;9.124;2023-03-23T14:25:16;98462.81;;;13.37
49154;BMP280;49455;52.252;9.124;2023-03-23T14:30:22;98481.03;;;13.24
49154;BMP280;49455;52.252;9.124;2023-03-23T14:35:26;98481.94;;;13.01
49154;BMP280;49455;52.252;9.124;2023-03-23T14:40:28;98471.63;;;12.89
49154;BMP280;49455;52.252;9.124;2023-03-23T14:45:29;98489.75;;;12.76
49154;BMP280;49455;52.252;9.124;2023-03-23T14:50:47;98492.31;;;12.66
49154;BMP280;49455;52.252;9.124;2023-03-23T14:55:50;98479.34;;;12.94
49154;BMP280;49455;52.252;9.124;2023-03-23T15:01:07;98500.09;;;13.14
49154;BMP280;49455;52.252;9.124;2023-03-23T15:06:15;98494.09;;;12.78
49154;BMP280;49455;52.252;9.124;2023-03-23T15:16:25;98455.22;;;12.78
49154;BMP280;49455;52.252;9.124;2023-03-23T15:21:28;98481.97;;;12.54
49154;BMP280;49455;52.252;9.124;2023-03-23T15:26:42;98486.22;;;13.27
49154;BMP280;49455;52.252;9.124;2023-03-23T15:31:54;98493.16;;;13.13
49154;BMP280;49455;52.252;9.124;2023-03-23T15:37:04;98483.63;;;13.29
49154;BMP280;49455;52.252;9.124;2023-03-23T15:42:05;98462.84;;;13.31
49154;BMP280;49455;52.252;9.124;2023-03-23T15:47:16;98468.75;;;13.67
49154;BMP280;49455;52.252;9.124;2023-03-23T15:52:17;98464.63;;;13.25
49154;BMP280;49455;52.252;9.124;2023-03-23T15:57:17;98463.78;;;13.14
49154;BMP280;49455;52.252;9.124;2023-03-23T16:02:22;98446.53;;;12.93
49154;BMP280;49455;52.252;9.124;2023-03-23T16:07:24;98448.28;;;12.92
49154;BMP280;49455;52.252;9.124;2023-03-23T16:12:24;98449.16;;;12.84
49154;BMP280;49455;52.252;9.124;2023-03-23T16:17:25;98443.97;;;12.76
49154;BMP280;49455;52.252;9.124;2023-03-23T16:22:25;98452.56;;;12.89
49154;BMP280;49455;52.252;9.124;2023-03-23T16:27:26;98450.81;;;13.10
49154;BMP280;49455;52.252;9.124;2023-03-23T16:32:26;98448.16;;;13.32
49154;BMP280;49455;52.252;9.124;2023-03-23T16:37:27;98449.09;;;12.94
49154;BMP280;49455;52.252;9.124;2023-03-23T16:42:27;98449.16;;;12.87
49154;BMP280;49455;52.252;9.124;2023-03-23T16:47:28;98450.00;;;12.77
49154;BMP280;49455;52.252;9.124;2023-03-23T16:52:28;98448.28;;;12.73
49154;BMP280;49455;52.252;9.124;2023-03-23T16:57:31;98443.94;;;12.59
49154;BMP280;49455;52.252;9.124;2023-03-23T17:02:32;98443.94;;;12.59
49154;BMP280;49455;52.252;9.124;2023-03-23T17:07:32;98448.25;;;12.52
49154;BMP280;49455;52.252;9.124;2023-03-23T17:12:33;98450.00;;;12.30
49154;BMP280;49455;52.252;9.124;2023-03-23T17:17:34;98458.59;;;12.26
49154;BMP280;49455;52.252;9.124;2023-03-23T17:22:36;98462.06;;;12.25
49154;BMP280;49455;52.252;9.124;2023-03-23T17:27:37;98457.72;;;12.12
49154;BMP280;49455;52.252;9.124;2023-03-23T17:32:37;98452.53;;;12.02
49154;BMP280;49455;52.252;9.124;2023-03-23T17:37:38;98468.91;;;11.99
49154;BMP280;49455;52.252;9.124;2023-03-23T17:42:39;98476.66;;;11.81
49154;BMP280;49455;52.252;9.124;2023-03-23T17:47:39;98494.75;;;11.83
49154;BMP280;49455;52.252;9.124;2023-03-23T17:52:40;98494.75;;;11.76
49154;BMP280;49455;52.252;9.124;2023-03-23T17:57:40;98511.09;;;11.72
49154;BMP280;49455;52.252;9.124;2023-03-23T18:02:41;98518.91;;;11.76
49154;BMP280;49455;52.252;9.124;2023-03-23T18:07:41;98536.09;;;11.70
49154;BMP280;49455;52.252;9.124;2023-03-23T18:12:41;98518.03;;;11.80
49154;BMP280;49455;52.252;9.124;2023-03-23T18:17:42;98512.88;;;11.86
49154;BMP280;49455;52.252;9.124;2023-03-23T18:22:42;98527.56;;;11.88
49154;BMP280;49455;52.252;9.124;2023-03-23T18:27:43;98517.25;;;11.97
49154;BMP280;49455;52.252;9.124;2023-03-23T18:32:43;98518.13;;;12.04
49154;BMP280;49455;52.252;9.124;2023-03-23T18:37:43;98511.25;;;12.08
49154;BMP280;49455;52.252;9.124;2023-03-23T18:42:44;98505.19;;;12.07
49154;BMP280;49455;52.252;9.124;2023-03-23T18:47:44;98499.13;;;12.07
49154;BMP280;49455;52.252;9.124;2023-03-23T18:52:45;98488.78;;;12.12
49154;BMP280;49455;52.252;9.124;2023-03-23T18:57:45;98487.94;;;12.13
49154;BMP280;49455;52.252;9.124;2023-03-23T19:02:46;98487.91;;;12.10
49154;BMP280;49455;52.252;9.124;2023-03-23T19:07:46;98482.75;;;12.07
49154;BMP280;49455;52.252;9.124;2023-03-23T19:12:47;98487.06;;;12.04
49154;BMP280;49455;52.252;9.124;2023-03-23T19:17:48;98469.78;;;12.01
49154;BMP280;49455;52.252;9.124;2023-03-23T19:22:49;98468.06;;;11.99
49154;BMP280;49455;52.252;9.124;2023-03-23T19:27:49;98462.00;;;11.92
49154;BMP280;49455;52.252;9.124;2023-03-23T19:32:50;98455.09;;;11.88
49154;BMP280;49455;52.252;9.124;2023-03-23T19:37:50;98455.94;;;11.86
49154;BMP280;49455;52.252;9.124;2023-03-23T19:42:51;98451.63;;;11.80
49154;BMP280;49455;52.252;9.124;2023-03-23T19:47:51;98430.09;;;11.89
49154;BMP280;49455;52.252;9.124;2023-03-23T19:52:52;98424.91;;;11.90
49154;BMP280;49455;52.252;9.124;2023-03-23T19:57:52;98415.41;;;11.88
49154;BMP280;49455;52.252;9.124;2023-03-23T20:02:52;98417.13;;;11.84
49154;BMP280;49455;52.252;9.124;2023-03-23T20:07:53;98411.94;;;11.77
49154;BMP280;49455;52.252;9.124;2023-03-23T20:12:54;98417.97;;;11.79
49154;BMP280;49455;52.252;9.124;2023-03-23T20:17:54;98420.53;;;11.69
49154;BMP280;49455;52.252;9.124;2023-03-23T20:22:55;98417.97;;;11.70
49154;BMP280;49455;52.252;9.124;2023-03-23T20:27:56;98421.44;;;11.82
49154;BMP280;49455;52.252;9.124;2023-03-23T20:32:57;98428.38;;;11.92
49154;BMP280;49455;52.252;9.124;2023-03-23T20:37:58;98411.97;;;11.90
49154;BMP280;49455;52.252;9.124;2023-03-23T20:42:58;98397.28;;;11.80
49154;BMP280;49455;52.252;9.124;2023-03-23T20:47:58;98396.38;;;11.70
49154;BMP280;49455;52.252;9.124;2023-03-23T20:52:59;98388.63;;;11.67
49154;BMP280;49455;52.252;9.124;2023-03-23T20:57:59;98392.94;;;11.62
49154;BMP280;49455;52.252;9.124;2023-03-23T21:03:00;98382.59;;;11.62
49154;BMP280;49455;52.252;9.124;2023-03-23T21:08:00;98380.03;;;11.68
49154;BMP280;49455;52.252;9.124;2023-03-23T21:13:01;98382.59;;;11.62
49154;BMP280;49455;52.252;9.124;2023-03-23T21:18:02;98361.91;;;11.72
49154;BMP280;49455;52.252;9.124;2023-03-23T21:23:04;98355.84;;;11.64
49154;BMP280;49455;52.252;9.124;2023-03-23T21:28:04;98342.06;;;11.70
49154;BMP280;49455;52.252;9.124;2023-03-23T21:33:05;98343.81;;;11.78
49154;BMP280;49455;52.252;9.124;2023-03-23T21:38:06;98336.91;;;11.74
49154;BMP280;49455;52.252;9.124;2023-03-23T21:43:06;98330.00;;;11.75
49154;BMP280;49455;52.252;9.124;2023-03-23T21:48:08;98327.41;;;11.75
49154;BMP280;49455;52.252;9.124;2023-03-23T21:53:09;98328.28;;;11.79
49154;BMP280;49455;52.252;9.124;2023-03-23T21:58:09;98323.97;;;11.81
49154;BMP280;49455;52.252;9.124;2023-03-23T22:03:10;98317.94;;;11.82
49154;BMP280;49455;52.252;9.124;2023-03-23T22:08:10;98311.00;;;11.86
49154;BMP280;49455;52.252;9.124;2023-03-23T22:13:11;98305.84;;;11.83
49154;BMP280;49455;52.252;9.124;2023-03-23T22:18:12;98298.09;;;11.81
49154;BMP280;49455;52.252;9.124;2023-03-23T22:23:12;98286.03;;;11.86
49154;BMP280;49455;52.252;9.124;2023-03-23T22:28:13;98279.09;;;11.88
49154;BMP280;49455;52.252;9.124;2023-03-23T22:33:13;98279.97;;;11.93
49154;BMP280;49455;52.252;9.124;2023-03-23T22:38:14;98263.59;;;12.00
49154;BMP280;49455;52.252;9.124;2023-03-23T22:43:14;98247.19;;;11.95
49154;BMP280;49455;52.252;9.124;2023-03-23T22:48:15;98248.91;;;12.05
49154;BMP280;49455;52.252;9.124;2023-03-23T22:53:16;98237.69;;;12.06
49154;BMP280;49455;52.252;9.124;2023-03-23T22:58:17;98219.56;;;12.09
49154;BMP280;49455;52.252;9.124;2023-03-23T23:03:17;98223.03;;;12.04
49154;BMP280;49455;52.252;9.124;2023-03-23T23:08:18;98209.22;;;12.06
49154;BMP280;49455;52.252;9.124;2023-03-23T23:13:19;98200.56;;;12.07
49154;BMP280;49455;52.252;9.124;2023-03-23T23:18:20;98191.94;;;12.11
49154;BMP280;49455;52.252;9.124;2023-03-23T23:23:21;98179.84;;;12.14
49154;BMP280;49455;52.252;9.124;2023-03-23T23:28:22;98178.09;;;12.18
49154;BMP280;49455;52.252;9.124;2023-03-23T23:33:22;98176.41;;;12.17
49154;BMP280;49455;52.252;9.124;2023-03-23T23:38:23;98175.53;;;12.15
49154;BMP280;49455;52.252;9.124;2023-03-23T23:43:23;98175.50;;;12.21
49154;BMP280;49455;52.252;9.124;2023-03-23T23:48:24;98176.38;;;12.23
49154;BMP280;49455;52.252;9.124;2023-03-23T23:53:24;98179.84;;;12.17
49154;BMP280;49455;52.252;9.124;2023-03-23T23:58:25;98181.59;;;12.07
